Time;durP1;ratioP1;P1;durP2;ratioP2;P2;SDS_P1;SDS_P2;PMS_P1;PMS_P2;Temp;Humidity;BMP_temperature;BMP_pressure;BME280_temperature;BME280_humidity;BME280_pressure;Samples;Min_cycle;Max_cycle;Signal;HPM_P1;HPM_P2
2022/10/03 00:00:38;;;;;;;7.60;6.97;;;18.40;69.90;;;;;;5041773;28;20524;-48
2022/10/03 00:03:28;;;;;;;8.10;7.40;;;18.40;69.70;;;;;;5044597;28;20478;-47
2022/10/03 00:06:08;;;;;;;8.63;7.73;;;18.40;69.90;;;;;;5042387;28;20489;-49
2022/10/03 00:09:04;;;;;;;9.70;8.80;;;18.40;70.00;;;;;;5043206;28;20584;-48
2022/10/03 00:12:04;;;;;;;9.60;8.60;;;18.40;70.30;;;;;;5043028;28;20450;-47
2022/10/03 00:14:51;;;;;;;10.50;9.50;;;18.40;70.20;;;;;;5035445;28;20477;-47
2022/10/03 00:17:21;;;;;;;10.07;9.13;;;18.20;70.60;;;;;;5042800;28;20533;-47
2022/10/03 00:20:05;;;;;;;9.23;8.37;;;18.10;70.60;;;;;;5037070;28;20549;-50
2022/10/03 00:22:33;;;;;;;9.70;8.70;;;18.00;70.70;;;;;;5040373;28;20450;-49
2022/10/03 00:25:05;;;;;;;9.73;8.73;;;18.00;71.30;;;;;;5044309;28;20443;-47
2022/10/03 00:27:34;;;;;;;9.53;8.20;;;18.00;71.10;;;;;;5048657;28;20444;-47
2022/10/03 00:30:15;;;;;;;8.90;8.10;;;17.90;71.00;;;;;;5048781;28;20562;-47
2022/10/03 00:33:10;;;;;;;9.90;9.00;;;17.90;71.40;;;;;;5047161;28;20453;-47
2022/10/03 00:35:41;;;;;;;9.60;8.80;;;18.00;71.10;;;;;;5043935;28;20879;-48
2022/10/03 00:38:07;;;;;;;8.83;8.03;;;17.90;71.00;;;;;;5046736;28;20493;-51
2022/10/03 00:41:10;;;;;;;10.10;9.23;;;17.90;71.30;;;;;;5046424;28;20459;-48
2022/10/03 00:43:36;;;;;;;9.30;8.40;;;18.00;70.90;;;;;;5042408;28;20192;-48
2022/10/03 00:46:10;;;;;;;9.10;8.30;;;17.90;70.80;;;;;;5041739;28;20483;-47
2022/10/03 00:48:51;;;;;;;8.83;7.93;;;18.00;70.80;;;;;;5046880;28;20274;-50
2022/10/03 00:51:37;;;;;;;9.53;8.53;;;17.90;71.40;;;;;;5044658;28;20807;-49
2022/10/03 00:54:42;;;;;;;10.00;9.00;;;17.90;71.30;;;;;;5045345;28;20451;-48
2022/10/03 00:57:38;;;;;;;9.60;8.70;;;18.00;70.90;;;;;;5041143;28;20534;-47
2022/10/03 01:00:25;;;;;;;9.23;8.33;;;18.00;70.90;;;;;;5038598;28;20512;-48
2022/10/03 01:02:51;;;;;;;9.30;8.40;;;18.00;70.80;;;;;;5037843;28;20503;-48
2022/10/03 01:05:35;;;;;;;10.00;9.00;;;18.00;70.70;;;;;;5045940;28;20447;-49
2022/10/03 01:08:21;;;;;;;9.47;8.67;;;18.00;70.70;;;;;;5044565;28;20199;-51
2022/10/03 01:10:58;;;;;;;9.70;8.10;;;18.00;70.70;;;;;;5048109;28;20454;-47
2022/10/03 01:14:07;;;;;;;8.60;7.80;;;18.00;70.70;;;;;;5043084;28;20496;-48
2022/10/03 01:16:50;;;;;;;10.27;9.27;;;18.00;70.70;;;;;;4943223;28;20462;-47
2022/10/03 01:19:36;;;;;;;10.47;9.47;;;18.00;70.70;;;;;;4943126;28;20467;-47
2022/10/03 01:22:30;;;;;;;8.80;7.90;;;18.00;70.80;;;;;;5015863;28;20489;-49
2022/10/03 01:25:15;;;;;;;10.07;9.03;;;18.10;70.90;;;;;;5047187;28;20450;-47
2022/10/03 01:30:58;;;;;;;10.87;8.57;;;18.10;71.10;;;;;;5041242;28;21050;-47
2022/10/03 01:33:38;;;;;;;12.80;9.57;;;18.00;70.90;;;;;;5042165;28;20447;-47
2022/10/03 01:36:33;;;;;;;12.00;9.03;;;18.10;70.90;;;;;;5043076;28;20446;-48
2022/10/03 01:39:20;;;;;;;9.60;8.60;;;18.10;70.60;;;;;;5038970;28;20457;-47
2022/10/03 01:42:03;;;;;;;9.20;8.30;;;18.10;70.50;;;;;;5042678;28;20962;-47
2022/10/03 01:44:41;;;;;;;10.00;9.03;;;18.10;70.50;;;;;;5041957;28;20443;-48
2022/10/03 01:47:16;;;;;;;11.27;9.03;;;18.10;70.60;;;;;;5041778;28;20483;-48
2022/10/03 01:50:01;;;;;;;10.80;9.80;;;18.10;70.50;;;;;;5046074;28;20458;-47
2022/10/03 01:53:03;;;;;;;10.87;9.87;;;18.10;70.70;;;;;;5045441;28;20451;-48
2022/10/03 01:56:13;;;;;;;10.83;9.80;;;18.10;70.70;;;;;;5043579;28;20465;-48
2022/10/03 01:58:59;;;;;;;11.50;8.73;;;18.10;70.90;;;;;;5044017;28;20475;-49
2022/10/03 02:01:46;;;;;;;9.60;8.43;;;18.10;70.70;;;;;;5043276;28;20481;-50
2022/10/03 02:04:21;;;;;;;9.80;8.80;;;18.10;70.90;;;;;;5049587;28;20450;-47
2022/10/03 02:06:53;;;;;;;10.83;9.43;;;18.00;71.00;;;;;;5051490;28;20848;-47
2022/10/03 02:09:47;;;;;;;10.73;9.63;;;18.00;71.90;;;;;;5048189;28;20868;-48
2022/10/03 02:12:26;;;;;;;12.10;10.80;;;18.10;71.40;;;;;;5052830;28;20504;-48
2022/10/03 02:15:19;;;;;;;12.63;10.50;;;18.00;71.50;;;;;;5048380;28;20447;-50
2022/10/03 02:18:30;;;;;;;11.60;10.40;;;18.00;71.50;;;;;;5042224;28;20459;-48
2022/10/03 02:21:26;;;;;;;13.50;10.63;;;18.00;71.50;;;;;;4951889;28;21033;-48
2022/10/03 02:24:06;;;;;;;11.77;10.20;;;18.00;71.40;;;;;;5035331;28;20935;-48
2022/10/03 02:26:48;;;;;;;12.83;10.00;;;18.00;71.60;;;;;;5051284;28;20881;-49
2022/10/03 02:29:22;;;;;;;14.60;10.47;;;18.00;71.50;;;;;;5051092;28;20524;-48
2022/10/03 02:32:17;;;;;;;12.87;11.53;;;18.00;71.70;;;;;;5051668;28;20442;-48
2022/10/03 02:34:42;;;;;;;13.50;10.50;;;18.00;71.60;;;;;;5050360;28;20446;-47
2022/10/03 02:37:23;;;;;;;11.60;10.43;;;18.00;71.70;;;;;;5050282;28;20473;-50
2022/10/03 02:40:30;;;;;;;12.07;10.07;;;18.00;71.50;;;;;;5049982;28;20549;-50
2022/10/03 02:43:16;;;;;;;13.40;10.87;;;18.00;71.50;;;;;;5046287;28;20540;-47
2022/10/03 02:46:00;;;;;;;11.00;9.90;;;18.00;71.50;;;;;;5046124;28;20506;-50
2022/10/03 02:48:45;;;;;;;11.80;10.60;;;18.00;71.50;;;;;;5051545;28;20450;-51
2022/10/03 02:51:17;;;;;;;12.50;11.30;;;18.00;71.10;;;;;;5048327;28;20930;-47
2022/10/03 02:54:15;;;;;;;12.97;10.50;;;18.00;71.10;;;;;;5050445;28;21036;-47
2022/10/03 02:57:08;;;;;;;11.40;10.20;;;18.00;71.00;;;;;;5051459;28;20500;-48
2022/10/03 03:00:13;;;;;;;11.57;10.43;;;18.00;70.90;;;;;;5050911;28;20450;-47
2022/10/03 03:02:59;;;;;;;11.10;9.90;;;18.00;70.80;;;;;;5049349;28;20477;-47
2022/10/03 03:06:03;;;;;;;10.80;9.70;;;18.00;70.70;;;;;;5050808;28;20930;-48
2022/10/03 03:08:44;;;;;;;11.50;10.30;;;18.00;70.70;;;;;;5051198;28;20451;-47
2022/10/03 03:11:55;;;;;;;10.50;9.60;;;18.00;70.90;;;;;;5048912;28;20968;-48
2022/10/03 03:14:23;;;;;;;15.00;11.10;;;18.00;70.70;;;;;;5045208;28;20450;-50
2022/10/03 03:16:56;;;;;;;11.70;10.10;;;18.00;70.70;;;;;;5049644;28;20450;-51
2022/10/03 03:19:51;;;;;;;11.23;10.10;;;18.00;70.90;;;;;;5051341;28;20474;-48
2022/10/03 03:22:47;;;;;;;10.77;9.67;;;18.00;70.70;;;;;;5048974;28;20455;-49
2022/10/03 03:25:31;;;;;;;11.00;9.27;;;18.00;70.70;;;;;;5052235;28;20926;-49
2022/10/03 03:28:14;;;;;;;10.93;9.90;;;18.00;70.80;;;;;;5043284;28;20443;-47
2022/10/03 03:30:50;;;;;;;10.90;9.77;;;18.00;70.70;;;;;;5021912;28;20460;-51
2022/10/03 03:33:29;;;;;;;11.10;10.10;;;18.00;70.70;;;;;;5011095;28;20449;-49
2022/10/03 03:36:25;;;;;;;11.53;10.30;;;18.00;70.80;;;;;;5010939;28;20464;-47
2022/10/03 03:39:00;;;;;;;11.97;10.37;;;18.00;70.90;;;;;;4995362;28;20516;-48
2022/10/03 03:41:50;;;;;;;10.90;9.80;;;18.00;70.90;;;;;;5010574;28;20454;-48
2022/10/03 03:44:43;;;;;;;11.43;10.23;;;18.00;71.20;;;;;;5005808;28;20483;-49
2022/10/03 03:47:24;;;;;;;12.60;10.13;;;18.00;71.20;;;;;;5002210;28;20496;-52
2022/10/03 03:50:20;;;;;;;12.93;11.20;;;18.00;71.20;;;;;;5008801;28;20511;-50
2022/10/03 03:53:02;;;;;;;13.67;10.97;;;18.00;71.40;;;;;;5003904;28;20441;-50
2022/10/03 03:55:59;;;;;;;11.27;9.70;;;17.90;71.20;;;;;;5004249;28;20453;-49
2022/10/03 03:58:37;;;;;;;12.20;9.90;;;18.00;71.10;;;;;;5005601;28;20461;-48
2022/10/03 04:01:24;;;;;;;11.03;10.03;;;18.00;71.90;;;;;;5009140;28;20461;-47
2022/10/03 04:03:59;;;;;;;14.60;10.80;;;17.90;71.10;;;;;;5003883;28;20540;-49
2022/10/03 04:06:39;;;;;;;12.20;11.10;;;17.90;71.10;;;;;;5008596;28;20502;-48
2022/10/03 04:09:24;;;;;;;12.67;9.50;;;17.90;71.20;;;;;;5010961;28;20540;-49
2022/10/03 04:12:08;;;;;;;12.33;10.77;;;17.90;71.20;;;;;;5006952;28;20531;-49
2022/10/03 04:14:36;;;;;;;10.40;9.20;;;17.90;71.30;;;;;;5006901;28;20967;-48
2022/10/03 04:20:17;;;;;;;10.87;9.53;;;17.90;71.30;;;;;;5004452;28;20468;-49
2022/10/03 04:23:07;;;;;;;12.20;9.60;;;17.90;71.30;;;;;;5008541;28;20449;-48
2022/10/03 04:25:46;;;;;;;11.20;10.10;;;17.90;71.40;;;;;;5008077;28;20991;-48
2022/10/03 04:28:43;;;;;;;11.10;10.00;;;17.90;71.30;;;;;;5013410;28;20437;-47
2022/10/03 04:31:53;;;;;;;16.23;11.27;;;17.90;71.10;;;;;;5040677;28;21149;-47
2022/10/03 04:35:01;;;;;;;14.27;10.90;;;17.90;71.00;;;;;;5035601;28;20807;-49
2022/10/03 04:37:43;;;;;;;11.43;10.20;;;17.80;71.10;;;;;;5025032;28;20803;-50
2022/10/03 04:40:37;;;;;;;12.03;10.77;;;17.90;71.20;;;;;;5043488;28;20911;-48
2022/10/03 04:43:12;;;;;;;12.17;10.17;;;17.90;71.00;;;;;;5048409;28;20435;-53
2022/10/03 04:45:44;;;;;;;13.47;10.43;;;17.90;71.00;;;;;;5046792;28;20981;-52
2022/10/03 04:48:39;;;;;;;13.90;10.77;;;17.90;71.00;;;;;;5043080;28;20518;-52
2022/10/03 04:51:05;;;;;;;13.33;10.93;;;17.90;70.80;;;;;;5044754;28;20469;-50
2022/10/03 04:53:50;;;;;;;11.03;9.90;;;17.90;70.90;;;;;;5047230;28;20447;-52
2022/10/03 04:56:49;;;;;;;14.77;10.53;;;17.90;70.90;;;;;;5044349;28;20192;-52
2022/10/03 04:59:26;;;;;;;13.10;9.63;;;17.90;70.80;;;;;;5045927;28;20815;-48
2022/10/03 05:02:02;;;;;;;11.17;9.63;;;17.90;70.80;;;;;;5043464;28;20438;-53
2022/10/03 05:04:46;;;;;;;12.77;10.10;;;17.90;70.70;;;;;;5044819;28;20458;-52
2022/10/03 05:07:33;;;;;;;11.00;9.90;;;17.90;70.70;;;;;;5045439;28;20577;-52
2022/10/03 05:10:15;;;;;;;10.77;9.67;;;17.90;71.00;;;;;;5047097;28;20455;-48
2022/10/03 05:12:53;;;;;;;10.70;9.70;;;17.90;71.00;;;;;;5037789;28;20463;-52
2022/10/03 05:15:51;;;;;;;11.70;10.53;;;17.90;71.00;;;;;;5042852;28;20533;-52
2022/10/03 05:18:33;;;;;;;11.43;10.17;;;17.90;70.90;;;;;;4994555;28;20949;-48
2022/10/03 05:21:04;;;;;;;12.70;11.17;;;17.90;71.10;;;;;;5040196;28;20443;-49
2022/10/03 05:23:50;;;;;;;13.80;10.70;;;17.90;71.10;;;;;;5043703;28;20443;-50
2022/10/03 05:26:31;;;;;;;12.43;10.80;;;17.90;71.20;;;;;;5046592;28;20633;-52
2022/10/03 05:29:08;;;;;;;11.10;9.50;;;17.90;71.30;;;;;;5036113;28;20899;-52
2022/10/03 05:31:48;;;;;;;14.10;10.80;;;17.90;71.30;;;;;;5041068;28;20937;-47
2022/10/03 05:34:17;;;;;;;12.83;10.47;;;17.90;71.30;;;;;;5041276;28;20526;-49
2022/10/03 05:36:57;;;;;;;13.50;10.30;;;17.80;71.20;;;;;;5047039;28;20875;-52
2022/10/03 05:39:26;;;;;;;15.97;11.67;;;17.80;71.30;;;;;;5035563;28;20451;-49
2022/10/03 05:42:19;;;;;;;13.10;10.90;;;17.80;71.10;;;;;;5044250;28;20457;-49
2022/10/03 05:44:49;;;;;;;11.57;10.30;;;17.90;71.10;;;;;;5011432;28;20447;-47
2022/10/03 05:47:45;;;;;;;11.23;9.20;;;18.00;71.00;;;;;;5044709;28;20582;-47
2022/10/03 05:50:31;;;;;;;11.27;9.83;;;18.00;70.80;;;;;;5041371;28;20443;-48
2022/10/03 05:53:31;;;;;;;10.57;9.47;;;18.10;70.60;;;;;;5045456;28;20454;-49
2022/10/03 05:56:30;;;;;;;16.20;12.10;;;18.10;69.70;;;;;;5039558;28;20514;-47
2022/10/03 05:59:33;;;;;;;12.00;10.40;;;18.10;69.20;;;;;;5038522;28;20542;-48
2022/10/03 06:02:25;;;;;;;16.70;11.20;;;18.10;69.10;;;;;;5045000;28;20447;-52
2022/10/03 06:05:15;;;;;;;14.10;11.40;;;18.10;69.00;;;;;;5048215;28;20538;-47
2022/10/03 06:07:51;;;;;;;17.50;10.90;;;18.10;69.10;;;;;;5046815;28;20474;-47
2022/10/03 06:10:25;;;;;;;12.77;11.20;;;18.10;69.00;;;;;;5049724;28;20453;-49
2022/10/03 06:13:30;;;;;;;14.13;11.47;;;18.10;69.00;;;;;;5048876;28;20860;-47
2022/10/03 06:16:32;;;;;;;15.40;11.90;;;18.10;69.20;;;;;;5045909;28;20459;-48
2022/10/03 06:19:06;;;;;;;13.97;11.07;;;18.10;69.20;;;;;;5038691;28;20446;-47
2022/10/03 06:22:09;;;;;;;16.47;10.90;;;18.10;69.20;;;;;;5046682;28;20485;-46
2022/10/03 06:24:40;;;;;;;12.27;10.87;;;18.10;69.20;;;;;;5042740;28;21069;-51
2022/10/03 06:27:24;;;;;;;12.80;10.93;;;18.10;69.00;;;;;;5041856;28;20484;-47
2022/10/03 06:30:04;;;;;;;14.30;11.83;;;18.20;69.10;;;;;;5048587;28;20466;-47
2022/10/03 06:33:12;;;;;;;16.73;11.27;;;18.10;69.00;;;;;;5044405;28;20821;-47
2022/10/03 06:35:57;;;;;;;14.20;10.80;;;18.20;69.00;;;;;;5039875;28;20504;-48
2022/10/03 06:38:50;;;;;;;19.73;11.23;;;18.20;69.00;;;;;;5047485;28;20451;-47
2022/10/03 06:41:56;;;;;;;12.97;10.30;;;18.20;69.40;;;;;;5049708;28;20527;-48
2022/10/03 06:44:35;;;;;;;13.30;11.57;;;18.30;69.90;;;;;;5046127;28;20827;-49
2022/10/03 06:47:03;;;;;;;11.00;9.90;;;18.40;69.60;;;;;;5042510;28;20501;-52
2022/10/03 06:49:55;;;;;;;23.83;13.60;;;18.50;69.90;;;;;;5043810;28;20957;-48
2022/10/03 06:52:37;;;;;;;58.87;37.67;;;18.60;69.60;;;;;;4996153;28;20944;-48
2022/10/03 06:55:15;;;;;;;13.70;9.30;;;18.80;68.20;;;;;;5048154;28;20942;-48
2022/10/03 06:58:19;;;;;;;15.23;11.33;;;18.80;67.10;;;;;;5049079;28;21033;-49
2022/10/03 07:01:23;;;;;;;13.93;11.00;;;18.90;67.10;;;;;;5042331;28;20453;-48
2022/10/03 07:04:05;;;;;;;14.43;9.80;;;18.80;67.00;;;;;;5043742;28;20459;-49
2022/10/03 07:06:34;;;;;;;10.90;9.80;;;18.90;68.50;;;;;;5048091;28;20535;-52
2022/10/03 07:09:35;;;;;;;12.33;10.80;;;19.00;66.00;;;;;;5048540;28;20525;-49
2022/10/03 07:12:32;;;;;;;13.53;11.17;;;19.00;65.00;;;;;;5046718;28;20447;-50
2022/10/03 07:15:25;;;;;;;11.23;9.10;;;18.90;64.90;;;;;;5042836;28;20543;-48
2022/10/03 07:18:09;;;;;;;14.20;8.57;;;18.90;65.20;;;;;;5049727;28;20454;-51
2022/10/03 07:20:59;;;;;;;12.40;10.67;;;19.00;66.20;;;;;;5046317;28;20455;-49
2022/10/03 07:23:43;;;;;;;16.57;12.57;;;18.90;65.50;;;;;;5049965;28;20812;-48
2022/10/03 07:26:29;;;;;;;10.03;6.30;;;19.00;64.30;;;;;;5044449;28;20491;-48
2022/10/03 07:29:13;;;;;;;12.20;9.20;;;18.90;66.10;;;;;;5044271;28;20479;-49
2022/10/03 07:32:08;;;;;;;14.00;11.30;;;19.00;66.00;;;;;;5045739;28;20447;-49
2022/10/03 07:35:02;;;;;;;14.00;11.80;;;19.10;65.60;;;;;;5047092;28;20846;-50
2022/10/03 07:41:06;;;;;;;14.67;10.23;;;19.10;64.00;;;;;;5050341;28;20484;-48
2022/10/03 07:43:45;;;;;;;14.43;11.50;;;19.00;64.90;;;;;;4995102;28;20892;-47
2022/10/03 07:46:23;;;;;;;10.73;9.63;;;19.10;64.10;;;;;;5040815;28;20483;-46
2022/10/03 07:49:13;;;;;;;15.50;10.03;;;19.10;63.10;;;;;;5047478;28;20450;-50
2022/10/03 07:51:39;;;;;;;12.70;9.60;;;18.90;63.30;;;;;;5048676;28;20439;-51
2022/10/03 07:54:23;;;;;;;12.73;11.30;;;18.90;63.90;;;;;;5049314;28;20458;-51
2022/10/03 07:57:30;;;;;;;12.80;10.00;;;18.80;64.00;;;;;;5049038;28;20475;-52
2022/10/03 08:00:04;;;;;;;15.47;10.97;;;18.80;64.30;;;;;;5021570;28;20505;-50
2022/10/03 08:03:04;;;;;;;17.63;11.60;;;18.80;64.50;;;;;;5045771;28;20442;-52
2022/10/03 08:06:04;;;;;;;17.97;11.93;;;18.80;64.60;;;;;;5044035;28;20816;-49
2022/10/03 08:08:49;;;;;;;15.70;12.80;;;18.70;65.10;;;;;;5046351;28;20529;-52
2022/10/03 08:11:52;;;;;;;19.10;12.13;;;18.70;65.40;;;;;;5050192;28;20443;-49
2022/10/03 08:14:44;;;;;;;16.80;12.83;;;18.70;65.60;;;;;;5041388;28;20447;-51
2022/10/03 08:17:27;;;;;;;15.70;11.67;;;18.80;65.90;;;;;;5043565;28;20442;-52
2022/10/03 08:19:58;;;;;;;17.57;10.77;;;18.80;65.60;;;;;;5049802;28;20453;-53
2022/10/03 08:22:43;;;;;;;15.73;12.17;;;18.80;65.40;;;;;;5048009;28;20451;-52
2022/10/03 08:25:14;;;;;;;14.40;11.27;;;18.80;65.10;;;;;;5045988;28;20580;-52
2022/10/03 08:28:07;;;;;;;14.70;10.87;;;18.70;64.90;;;;;;5044758;28;20463;-51
2022/10/03 08:31:07;;;;;;;14.57;11.60;;;18.70;65.00;;;;;;5045037;28;20509;-51
2022/10/03 08:33:36;;;;;;;16.70;11.50;;;18.70;65.00;;;;;;5026303;28;20455;-49
2022/10/03 08:36:20;;;;;;;14.37;11.47;;;18.80;64.90;;;;;;5041040;28;20450;-51
2022/10/03 08:38:49;;;;;;;13.50;11.97;;;18.80;64.80;;;;;;5040550;28;20447;-51
2022/10/03 08:41:48;;;;;;;18.50;12.43;;;18.80;65.00;;;;;;5048688;28;20945;-52
2022/10/03 08:44:36;;;;;;;13.60;11.33;;;18.80;65.10;;;;;;5049063;28;20446;-53
2022/10/03 08:47:04;;;;;;;12.70;10.13;;;18.80;64.90;;;;;;5044085;28;20573;-53
2022/10/03 08:49:57;;;;;;;10.73;9.60;;;18.90;64.90;;;;;;5044491;28;20451;-48
2022/10/03 08:52:44;;;;;;;13.50;7.50;;;18.90;63.40;;;;;;5043821;28;20949;-52
2022/10/03 08:55:22;;;;;;;12.43;6.43;;;18.90;63.00;;;;;;5043216;28;20490;-52
2022/10/03 08:58:04;;;;;;;7.60;6.70;;;19.00;61.40;;;;;;5042914;28;20924;-51
2022/10/03 09:00:30;;;;;;;9.17;8.17;;;19.00;60.60;;;;;;5031812;28;20511;-49
2022/10/03 09:03:11;;;;;;;15.57;9.27;;;19.00;61.90;;;;;;5031280;28;20531;-48
2022/10/03 09:05:57;;;;;;;17.10;9.17;;;19.10;62.10;;;;;;5031500;28;20225;-50
2022/10/03 09:08:49;;;;;;;14.60;10.20;;;19.10;62.40;;;;;;5031440;28;20783;-48
2022/10/03 09:11:18;;;;;;;12.97;11.20;;;19.00;62.50;;;;;;5030730;28;20436;-51
2022/10/03 09:14:05;;;;;;;11.30;10.10;;;19.00;62.70;;;;;;5049206;28;20451;-50
2022/10/03 09:16:53;;;;;;;13.43;9.80;;;19.00;62.30;;;;;;5050314;28;20431;-52
2022/10/03 09:20:10;;;;;;;14.00;10.50;;;19.10;61.80;;;;;;5051398;28;20457;-50
2022/10/03 09:23:12;;;;;;;13.97;10.20;;;19.10;62.90;;;;;;5008702;28;20446;-49
2022/10/03 09:25:54;;;;;;;13.20;11.00;;;19.20;62.80;;;;;;5050809;28;20474;-48
2022/10/03 09:28:25;;;;;;;14.63;10.47;;;19.30;62.70;;;;;;5050748;28;20443;-48
2022/10/03 09:31:41;;;;;;;12.20;9.93;;;19.50;62.90;;;;;;5062550;28;20445;-49
2022/10/03 09:34:41;;;;;;;14.47;10.23;;;19.70;62.50;;;;;;5040549;28;20439;-52
2022/10/03 09:37:45;;;;;;;14.33;9.33;;;19.80;61.90;;;;;;5050127;28;20478;-48
2022/10/03 09:40:17;;;;;;;10.43;7.43;;;19.90;61.90;;;;;;4989367;28;20447;-47
2022/10/03 09:43:03;;;;;;;13.33;9.83;;;20.00;61.40;;;;;;5030712;28;20459;-49
2022/10/03 09:45:57;;;;;;;11.43;9.10;;;20.00;59.60;;;;;;5031276;28;20913;-49
2022/10/03 09:48:31;;;;;;;10.70;8.47;;;19.90;59.60;;;;;;5040084;28;20787;-48
2022/10/03 09:51:20;;;;;;;14.40;9.00;;;19.90;59.60;;;;;;5046305;28;20490;-48
2022/10/03 09:54:01;;;;;;;12.17;8.90;;;20.00;59.40;;;;;;5030976;28;20547;-49
2022/10/03 09:56:52;;;;;;;9.60;7.03;;;20.00;59.40;;;;;;5029980;28;20428;-48
2022/10/03 09:59:35;;;;;;;9.03;7.67;;;20.00;58.80;;;;;;5030892;28;20440;-48
2022/10/03 10:02:32;;;;;;;12.50;7.27;;;19.90;59.30;;;;;;5030716;28;20424;-48
2022/10/03 10:05:19;;;;;;;8.57;6.50;;;20.10;59.20;;;;;;5029986;28;20828;-51
2022/10/03 10:07:51;;;;;;;11.20;6.40;;;20.30;58.80;;;;;;5032962;28;20518;-48
2022/10/03 10:10:34;;;;;;;10.50;7.10;;;20.30;57.10;;;;;;5034988;28;20430;-48
2022/10/03 10:13:15;;;;;;;7.90;6.13;;;20.40;57.90;;;;;;5048178;28;20434;-48
2022/10/03 10:16:00;;;;;;;12.20;7.10;;;20.50;58.20;;;;;;5053729;28;20431;-48
2022/10/03 10:18:40;;;;;;;13.67;9.10;;;20.60;58.40;;;;;;5054388;28;20938;-48
2022/10/03 10:21:18;;;;;;;9.83;6.67;;;20.50;58.60;;;;;;5054092;28;20480;-49
2022/10/03 10:23:56;;;;;;;9.63;5.80;;;20.50;58.40;;;;;;5054507;28;20438;-48
2022/10/03 10:26:43;;;;;;;11.97;5.93;;;20.40;57.90;;;;;;5053300;28;20486;-49
2022/10/03 10:29:33;;;;;;;12.70;6.30;;;20.50;57.60;;;;;;5054188;28;20485;-48
2022/10/03 10:32:05;;;;;;;5.83;5.30;;;20.40;57.50;;;;;;5039864;28;20477;-52
2022/10/03 10:34:48;;;;;;;12.90;5.67;;;20.50;56.90;;;;;;5054415;28;20933;-49
2022/10/03 10:37:18;;;;;;;10.33;6.10;;;20.50;57.10;;;;;;5049118;28;20446;-53
2022/10/03 10:40:48;;;;;;;6.50;5.70;;;20.50;56.40;;;;;;5053803;28;20435;-53
2022/10/03 10:43:51;;;;;;;9.23;5.97;;;20.50;55.80;;;;;;4943931;28;20841;-49
2022/10/03 10:46:57;;;;;;;7.10;5.20;;;20.40;57.10;;;;;;4971988;28;20932;-50
2022/10/03 10:50:09;;;;;;;9.73;6.10;;;20.50;56.40;;;;;;5053708;28;20520;-49
2022/10/03 10:53:08;;;;;;;6.77;5.23;;;20.50;56.50;;;;;;5009074;28;20486;-51
2022/10/03 10:55:42;;;;;;;7.00;5.30;;;20.50;56.80;;;;;;5053301;28;20452;-51
2022/10/03 10:58:38;;;;;;;10.60;5.60;;;20.50;56.70;;;;;;5054035;28;20458;-49
2022/10/03 11:01:40;;;;;;;9.40;5.60;;;20.50;57.50;;;;;;5053192;28;20461;-53
2022/10/03 11:04:30;;;;;;;8.80;5.70;;;20.50;56.90;;;;;;5053666;28;20433;-50
2022/10/03 11:07:40;;;;;;;4.90;4.40;;;20.50;56.60;;;;;;5052512;28;20482;-53
2022/10/03 11:10:31;;;;;;;9.70;4.97;;;20.50;56.60;;;;;;5053254;28;20941;-52
2022/10/03 11:13:44;;;;;;;9.00;5.40;;;20.60;56.00;;;;;;5053057;28;20442;-52
2022/10/03 11:16:45;;;;;;;7.47;6.13;;;20.60;55.60;;;;;;5052370;28;20477;-52
2022/10/03 11:19:48;;;;;;;10.07;5.30;;;20.60;55.50;;;;;;5052768;28;20422;-51
2022/10/03 11:22:19;;;;;;;8.27;5.50;;;20.60;55.80;;;;;;5052963;28;20800;-51
2022/10/03 11:24:47;;;;;;;9.33;5.57;;;20.50;55.40;;;;;;5053584;28;20849;-50
2022/10/03 11:27:13;;;;;;;10.10;5.77;;;20.60;56.30;;;;;;5051012;28;20490;-52
2022/10/03 11:30:07;;;;;;;10.83;5.50;;;20.50;56.40;;;;;;5054716;28;20890;-53
2022/10/03 11:33:04;;;;;;;8.63;4.87;;;20.70;56.70;;;;;;5034031;28;20731;-53
2022/10/03 11:35:44;;;;;;;5.33;4.57;;;20.90;56.50;;;;;;5043197;28;20801;-48
2022/10/03 11:38:54;;;;;;;10.80;5.93;;;20.90;55.10;;;;;;5046491;28;20451;-49
2022/10/03 11:41:45;;;;;;;7.60;5.30;;;20.80;54.00;;;;;;4951723;29;20494;-50
2022/10/03 11:44:16;;;;;;;8.03;3.90;;;20.80;54.70;;;;;;4952566;28;20538;-52
2022/10/03 11:47:24;;;;;;;8.10;4.67;;;21.00;54.40;;;;;;5008998;28;20587;-52
2022/10/03 11:50:01;;;;;;;8.33;4.67;;;21.10;55.00;;;;;;5032208;28;20800;-51
2022/10/03 11:52:49;;;;;;;10.30;4.87;;;21.40;54.20;;;;;;5050530;28;20423;-53
2022/10/03 11:55:20;;;;;;;5.17;4.53;;;21.50;53.00;;;;;;5052974;28;20423;-52
2022/10/03 11:58:11;;;;;;;6.57;4.00;;;21.50;50.70;;;;;;5051765;28;20424;-52
2022/10/03 12:00:40;;;;;;;7.43;3.80;;;21.50;50.30;;;;;;5052717;28;20428;-50
2022/10/03 12:03:28;;;;;;;12.13;4.10;;;21.60;50.20;;;;;;5052350;28;20897;-48
2022/10/03 12:09:17;;;;;;;6.87;3.40;;;22.10;50.30;;;;;;5052799;28;20442;-52
2022/10/03 12:11:49;;;;;;;8.03;3.43;;;22.40;47.00;;;;;;5051897;28;20432;-49
2022/10/03 12:14:27;;;;;;;3.00;2.33;;;22.50;47.50;;;;;;5052387;28;20427;-48
2022/10/03 12:17:07;;;;;;;6.17;3.23;;;22.70;46.60;;;;;;5051376;28;20481;-47
2022/10/03 12:20:02;;;;;;;4.37;2.47;;;22.90;45.70;;;;;;5050878;28;20835;-50
2022/10/03 12:22:37;;;;;;;5.27;2.57;;;23.00;45.70;;;;;;5051456;28;20443;-48
2022/10/03 12:25:24;;;;;;;4.50;2.60;;;23.10;44.80;;;;;;5052296;28;20483;-47
2022/10/03 12:28:17;;;;;;;4.00;2.70;;;23.10;45.00;;;;;;5051777;28;20451;-47
2022/10/03 12:30:59;;;;;;;6.10;2.60;;;23.00;47.00;;;;;;5060843;28;20851;-49
2022/10/03 12:34:04;;;;;;;4.43;2.70;;;23.00;45.60;;;;;;5033555;28;20481;-47
2022/10/03 12:36:56;;;;;;;4.43;2.90;;;23.00;45.40;;;;;;5032663;28;20443;-47
2022/10/03 12:39:38;;;;;;;5.93;3.07;;;23.10;46.50;;;;;;5048183;28;21012;-47
2022/10/03 12:42:33;;;;;;;4.47;2.60;;;23.20;45.30;;;;;;5051514;28;20423;-47
2022/10/03 12:45:11;;;;;;;5.83;2.70;;;23.10;45.80;;;;;;5051987;28;20804;-49
2022/10/03 12:48:17;;;;;;;6.20;2.73;;;23.10;45.20;;;;;;5050457;28;20478;-48
2022/10/03 12:50:55;;;;;;;5.83;2.30;;;22.90;44.10;;;;;;5040093;28;20793;-49
2022/10/03 12:53:53;;;;;;;6.70;2.70;;;22.90;44.80;;;;;;5051861;28;20439;-49
2022/10/03 12:56:55;;;;;;;5.20;2.63;;;23.10;44.80;;;;;;5013748;28;20454;-47
2022/10/03 12:59:41;;;;;;;6.23;2.40;;;23.30;44.80;;;;;;5045630;28;20444;-46
2022/10/03 13:02:21;;;;;;;4.93;2.90;;;23.40;44.60;;;;;;5031018;28;20935;-46
2022/10/03 13:05:20;;;;;;;7.00;2.73;;;23.50;44.00;;;;;;5032010;28;21030;-48
2022/10/03 13:07:55;;;;;;;3.40;2.53;;;23.50;45.10;;;;;;5039229;28;20992;-47
2022/10/03 13:10:44;;;;;;;6.40;3.20;;;23.50;45.50;;;;;;5051284;28;20512;-46
2022/10/03 13:13:41;;;;;;;3.80;2.57;;;23.60;45.40;;;;;;5049966;28;20450;-47
2022/10/03 13:16:20;;;;;;;4.00;2.23;;;23.60;45.20;;;;;;5050510;28;20454;-46
2022/10/03 13:18:54;;;;;;;10.17;3.53;;;23.60;45.00;;;;;;5051149;28;20788;-47
2022/10/03 13:21:42;;;;;;;6.80;2.47;;;23.60;44.60;;;;;;5050690;28;20922;-46
2022/10/03 13:24:38;;;;;;;3.60;2.53;;;23.60;43.90;;;;;;5051246;28;20530;-46
2022/10/03 13:27:36;;;;;;;3.63;2.80;;;23.60;42.80;;;;;;5050058;28;20489;-46
2022/10/03 13:30:05;;;;;;;3.30;2.47;;;23.50;42.70;;;;;;5055914;28;20500;-47
2022/10/03 13:32:41;;;;;;;4.10;2.87;;;23.40;42.00;;;;;;5046677;28;20460;-48
2022/10/03 13:38:15;;;;;;;7.80;2.23;;;23.30;41.10;;;;;;5041103;28;20957;-49
2022/10/03 13:40:53;;;;;;;6.17;2.70;;;23.30;41.80;;;;;;5029217;28;20463;-50
2022/10/03 13:43:26;;;;;;;7.43;3.63;;;23.30;42.70;;;;;;5035219;28;20424;-49
2022/10/03 13:45:55;;;;;;;7.33;2.60;;;23.20;45.20;;;;;;5034025;28;20814;-49
2022/10/03 13:48:26;;;;;;;4.37;2.87;;;23.20;45.90;;;;;;5035314;28;20521;-48
2022/10/03 13:50:57;;;;;;;4.73;3.27;;;23.20;46.00;;;;;;5034607;28;20436;-48
2022/10/03 13:53:31;;;;;;;4.27;2.70;;;23.40;46.00;;;;;;5035270;28;20586;-48
2022/10/03 13:56:06;;;;;;;6.57;2.60;;;23.60;44.80;;;;;;5033817;28;20947;-49
2022/10/03 13:58:46;;;;;;;6.83;2.47;;;23.40;46.40;;;;;;5033337;28;20447;-49
2022/10/03 14:01:42;;;;;;;7.87;2.80;;;23.60;44.90;;;;;;5054305;28;20442;-50
2022/10/03 14:04:29;;;;;;;4.70;2.93;;;23.70;44.60;;;;;;5054952;28;20522;-50
2022/10/03 14:07:17;;;;;;;3.93;2.40;;;23.80;44.90;;;;;;5052083;28;20477;-48
2022/10/03 14:09:56;;;;;;;10.33;2.80;;;23.70;44.00;;;;;;5054616;28;20419;-53
2022/10/03 14:12:25;;;;;;;6.13;2.40;;;23.60;45.30;;;;;;5053905;28;20793;-53
2022/10/03 14:15:30;;;;;;;6.43;2.93;;;23.60;45.00;;;;;;5054724;28;20431;-51
2022/10/03 14:18:13;;;;;;;3.43;2.67;;;23.60;45.00;;;;;;5016836;28;20442;-50
2022/10/03 14:21:16;;;;;;;5.77;2.80;;;23.60;44.60;;;;;;5054531;28;20439;-53
2022/10/03 14:24:06;;;;;;;8.07;3.43;;;23.70;44.80;;;;;;5054489;28;20442;-53
2022/10/03 14:26:49;;;;;;;4.50;2.93;;;23.60;44.50;;;;;;5053362;28;20482;-50